Time;durP1;ratioP1;P1;durP2;ratioP2;P2;SDS_P1;SDS_P2;PMS_P1;PMS_P2;Temp;Humidity;BMP_temperature;BMP_pressure;BME280_temperature;BME280_humidity;BME280_pressure;Samples;Min_cycle;Max_cycle;Signal;HPM_P1;HPM_P2
2021/04/03 00:01:01;;;;;;;;;;;7.20;86.10;;;;;;5076100;28;19908;-86
2021/04/03 00:03:28;;;;;;;;;;;7.20;86.50;;;;;;5076477;28;19904;-86
2021/04/03 00:05:53;;;;;;;;;;;7.30;86.40;;;;;;5076233;28;19905;-86
2021/04/03 00:08:22;;;;;;;;;;;7.30;86.30;;;;;;5058282;28;19927;-87
2021/04/03 00:10:49;;;;;;;;;;;7.30;86.40;;;;;;5057598;28;19995;-87
2021/04/03 00:13:15;;;;;;;;;;;7.30;86.50;;;;;;5057993;28;19909;-86
2021/04/03 00:15:41;;;;;;;;;;;7.30;86.60;;;;;;5076209;28;19934;-86
2021/04/03 00:18:07;;;;;;;;;;;7.30;86.20;;;;;;5076122;28;20501;-86
2021/04/03 00:20:33;;;;;;;;;;;7.40;86.00;;;;;;5075340;28;19911;-87
2021/04/03 00:22:59;;;;;;;;;;;7.30;85.30;;;;;;5058575;28;19912;-86
2021/04/03 00:25:24;;;;;;;;;;;7.20;84.90;;;;;;5058117;28;19905;-85
2021/04/03 00:27:50;;;;;;;;;;;7.10;85.20;;;;;;5057715;28;19916;-87
2021/04/03 00:30:19;;;;;;;;;;;7.00;84.90;;;;;;5057386;28;19905;-86
2021/04/03 00:32:46;;;;;;;;;;;7.00;85.10;;;;;;5057014;28;19908;-86
2021/04/03 00:35:12;;;;;;;;;;;7.00;85.70;;;;;;5058483;28;20046;-86
2021/04/03 00:37:39;;;;;;;;;;;7.00;85.80;;;;;;5058155;28;20361;-86
2021/04/03 00:40:24;;;;;;;;;;;6.90;85.80;;;;;;5058050;28;20369;-86
2021/04/03 00:42:52;;;;;;;;;;;6.90;85.70;;;;;;5058134;28;20375;-86
2021/04/03 00:45:20;;;;;;;;;;;6.90;86.20;;;;;;5076482;28;19936;-87
2021/04/03 00:47:46;;;;;;;;;;;7.00;85.70;;;;;;5077007;28;19904;-86
2021/04/03 00:50:12;;;;;;;;;;;7.00;85.60;;;;;;5075984;28;19930;-86
2021/04/03 00:52:38;;;;;;;;;;;7.00;85.20;;;;;;5057786;28;19908;-86
2021/04/03 00:55:05;;;;;;;;;;;6.80;84.80;;;;;;5058300;28;19905;-86
2021/04/03 00:57:30;;;;;;;;;;;6.70;86.00;;;;;;5058319;28;20341;-86
2021/04/03 00:59:56;;;;;;;;;;;6.70;86.00;;;;;;5057619;28;19912;-86
2021/04/03 01:02:22;;;;;;;;;;;6.70;86.20;;;;;;5058220;28;19904;-86
2021/04/03 01:04:47;;;;;;;;;;;6.80;86.40;;;;;;5057045;28;19954;-86
2021/04/03 01:07:13;;;;;;;;;;;6.90;85.40;;;;;;5074473;28;19974;-86
2021/04/03 01:09:39;;;;;;;;;;;6.80;84.10;;;;;;5055386;28;19904;-85
2021/04/03 01:12:10;;;;;;;;;;;6.70;85.00;;;;;;5071925;28;20411;-86
2021/04/03 01:14:53;;;;;;;;;;;6.70;85.40;;;;;;5055984;28;19908;-86
2021/04/03 01:17:34;;;;;;;;;;;6.70;85.70;;;;;;5056004;28;19905;-86
2021/04/03 01:20:13;;;;;;;;;;;6.70;86.40;;;;;;5055248;28;19973;-86
2021/04/03 01:23:01;;;;;;;;;;;6.80;86.20;;;;;;5073603;28;20450;-85
2021/04/03 01:25:36;;;;;;;;;;;7.00;86.10;;;;;;5055695;28;20356;-86
2021/04/03 01:28:17;;;;;;;;;;;7.10;86.00;;;;;;5055871;28;20031;-86
2021/04/03 01:30:45;;;;;;;;;;;7.10;85.80;;;;;;5072815;28;20002;-86
2021/04/03 01:33:11;;;;;;;;;;;7.20;85.70;;;;;;5073530;28;20481;-86
2021/04/03 01:35:38;;;;;;;;;;;7.10;85.70;;;;;;5055632;28;20353;-86
2021/04/03 01:38:09;;;;;;;;;;;7.10;85.80;;;;;;5073099;28;19911;-85
2021/04/03 01:40:35;;;;;;;;;;;6.90;85.70;;;;;;5054635;28;19936;-85
2021/04/03 01:43:04;;;;;;;;;;;6.70;86.80;;;;;;5073089;28;19912;-85
2021/04/03 01:45:29;;;;;;;;;;;6.70;86.30;;;;;;5055108;28;19947;-86
2021/04/03 01:47:56;;;;;;;;;;;6.60;86.60;;;;;;5055071;28;19940;-86
2021/04/03 01:50:23;;;;;;;;;;;6.60;86.00;;;;;;5072455;28;19920;-85
2021/04/03 01:52:49;;;;;;;;;;;6.50;86.10;;;;;;5072875;28;19998;-85
2021/04/03 01:55:16;;;;;;;;;;;6.70;85.60;;;;;;5054873;28;19912;-86
2021/04/03 01:57:45;;;;;;;;;;;6.70;85.00;;;;;;5054941;28;19904;-86
2021/04/03 02:00:14;;;;;;;;;;;6.80;84.40;;;;;;5072322;28;19904;-85
2021/04/03 02:02:40;;;;;;;;;;;6.60;84.70;;;;;;5054907;28;19904;-85
2021/04/03 02:05:08;;;;;;;;;;;6.60;84.30;;;;;;5072805;28;19904;-85
2021/04/03 02:07:36;;;;;;;;;;;6.60;84.20;;;;;;5072697;28;20357;-86
2021/04/03 02:10:04;;;;;;;;;;;6.70;83.10;;;;;;5072047;28;20304;-85
2021/04/03 02:12:30;;;;;;;;;;;6.70;81.70;;;;;;5072449;28;19999;-85
2021/04/03 02:14:55;;;;;;;;;;;6.80;81.80;;;;;;5054669;28;19954;-85
2021/04/03 02:17:21;;;;;;;;;;;6.80;81.50;;;;;;5054734;28;19939;-85
2021/04/03 02:19:47;;;;;;;;;;;6.80;81.50;;;;;;5072143;28;20441;-85
2021/04/03 02:22:16;;;;;;;;;;;6.90;80.70;;;;;;5054423;28;19947;-85
2021/04/03 02:24:42;;;;;;;;;;;6.70;79.90;;;;;;5054498;28;19911;-86
2021/04/03 02:27:08;;;;;;;;;;;6.80;78.90;;;;;;5072564;28;19904;-85
2021/04/03 02:29:34;;;;;;;;;;;6.80;78.90;;;;;;5053969;28;20564;-85
2021/04/03 02:31:59;;;;;;;;;;;6.80;79.00;;;;;;5054321;28;19909;-85
2021/04/03 02:34:25;;;;;;;;;;;6.60;79.20;;;;;;5054236;28;19948;-85
2021/04/03 02:36:50;;;;;;;;;;;6.50;79.90;;;;;;5054369;28;19998;-85
2021/04/03 02:39:16;;;;;;;;;;;6.70;79.80;;;;;;5053917;28;20002;-85
2021/04/03 02:41:41;;;;;;;;;;;6.70;80.20;;;;;;5072330;28;19916;-85
2021/04/03 02:44:10;;;;;;;;;;;6.70;80.70;;;;;;5054355;28;19911;-85
2021/04/03 02:46:45;;;;;;;;;;;6.80;80.50;;;;;;5072140;28;19954;-85
2021/04/03 02:49:23;;;;;;;;;;;6.70;80.60;;;;;;5071758;28;19908;-85
2021/04/03 02:51:53;;;;;;;;;;;6.60;81.50;;;;;;5072217;28;19999;-85
2021/04/03 02:54:20;;;;;;;;;;;6.50;81.90;;;;;;5053113;28;19911;-85
2021/04/03 02:56:46;;;;;;;;;;;6.50;81.90;;;;;;5055877;28;19932;-85
2021/04/03 02:59:17;;;;;;;;;;;6.40;82.20;;;;;;5057686;28;19918;-85
2021/04/03 03:01:45;;;;;;;;;;;6.40;82.50;;;;;;5058130;28;20295;-85
2021/04/03 03:04:11;;;;;;;;;;;6.40;82.50;;;;;;5076172;28;20283;-85
2021/04/03 03:06:38;;;;;;;;;;;6.40;82.60;;;;;;5058062;28;19995;-85
2021/04/03 03:09:04;;;;;;;;;;;6.30;83.00;;;;;;5075464;28;19954;-85
2021/04/03 03:11:30;;;;;;;;;;;6.40;82.70;;;;;;5057977;28;19904;-85
2021/04/03 03:13:56;;;;;;;;;;;6.50;82.40;;;;;;5057937;28;20054;-85
2021/04/03 03:16:23;;;;;;;;;;;6.60;82.50;;;;;;5057852;28;19904;-85
2021/04/03 03:18:49;;;;;;;;;;;6.60;82.40;;;;;;5058185;28;19911;-85
2021/04/03 03:21:14;;;;;;;;;;;6.70;82.00;;;;;;5075461;28;19905;-85
2021/04/03 03:23:40;;;;;;;;;;;6.70;82.00;;;;;;5057868;28;19948;-85
2021/04/03 03:26:06;;;;;;;;;;;6.60;82.30;;;;;;5075598;28;19904;-85
2021/04/03 03:28:31;;;;;;;;;;;6.70;82.30;;;;;;5075697;28;19904;-86
2021/04/03 03:30:57;;;;;;;;;;;6.80;82.30;;;;;;5057144;28;19911;-85
2021/04/03 03:33:22;;;;;;;;;;;6.80;81.60;;;;;;5076815;28;19959;-85
2021/04/03 03:35:48;;;;;;;;;;;6.70;81.90;;;;;;5057309;28;20322;-85
2021/04/03 03:38:14;;;;;;;;;;;6.50;82.90;;;;;;5075552;28;19904;-85
2021/04/03 03:40:39;;;;;;;;;;;6.60;82.70;;;;;;5074899;28;19905;-85
2021/04/03 03:43:05;;;;;;;;;;;6.30;83.80;;;;;;5057585;28;20357;-85
2021/04/03 03:45:31;;;;;;;;;;;6.20;84.70;;;;;;5057305;28;19916;-85
2021/04/03 03:47:57;;;;;;;;;;;6.30;86.10;;;;;;5057397;28;20369;-85
2021/04/03 03:50:22;;;;;;;;;;;6.30;88.00;;;;;;5056686;28;19942;-85
2021/04/03 03:52:48;;;;;;;;;;;6.20;89.20;;;;;;5057141;28;19915;-85
2021/04/03 03:55:13;;;;;;;;;;;6.40;90.30;;;;;;5075135;28;19909;-85
2021/04/03 03:57:39;;;;;;;;;;;6.50;88.70;;;;;;5057211;28;19904;-85
2021/04/03 04:00:06;;;;;;;;;;;6.60;88.20;;;;;;5074423;28;19927;-86
2021/04/03 04:02:31;;;;;;;;;;;6.60;87.70;;;;;;5074937;28;19991;-85
2021/04/03 04:04:57;;;;;;;;;;;6.60;87.60;;;;;;5074783;28;20368;-85
2021/04/03 04:07:23;;;;;;;;;;;6.70;87.50;;;;;;5055763;28;19904;-85
2021/04/03 04:09:48;;;;;;;;;;;6.70;87.50;;;;;;5074043;28;19904;-86
2021/04/03 04:12:14;;;;;;;;;;;6.70;87.10;;;;;;5074585;28;19962;-86
2021/04/03 04:14:39;;;;;;;;;;;6.80;87.30;;;;;;5056768;28;20424;-85
2021/04/03 04:17:05;;;;;;;;;;;6.80;86.30;;;;;;5056770;28;19954;-85
2021/04/03 04:19:30;;;;;;;;;;;6.80;86.60;;;;;;5074062;28;19908;-85
2021/04/03 04:21:56;;;;;;;;;;;6.80;86.60;;;;;;5056635;28;19947;-85
2021/04/03 04:24:21;;;;;;;;;;;6.80;86.70;;;;;;5056593;28;19904;-85
2021/04/03 04:26:47;;;;;;;;;;;6.80;85.50;;;;;;5057576;28;19905;-85
2021/04/03 04:29:13;;;;;;;;;;;6.80;85.20;;;;;;5055936;28;19958;-85
2021/04/03 04:31:39;;;;;;;;;;;6.70;85.40;;;;;;5056380;28;19912;-85
2021/04/03 04:34:05;;;;;;;;;;;6.80;86.00;;;;;;5056299;28;19908;-85
2021/04/03 04:36:31;;;;;;;;;;;6.80;86.10;;;;;;5056153;28;19923;-86
2021/04/03 04:38:56;;;;;;;;;;;6.80;86.30;;;;;;5055763;28;19904;-86
2021/04/03 04:41:22;;;;;;;;;;;6.80;85.90;;;;;;5074085;28;20276;-84
2021/04/03 04:43:47;;;;;;;;;;;6.70;85.10;;;;;;5056198;28;19905;-85
2021/04/03 04:46:13;;;;;;;;;;;6.60;85.20;;;;;;5056428;28;20426;-85
2021/04/03 04:48:38;;;;;;;;;;;6.60;85.50;;;;;;5056111;28;20000;-84
2021/04/03 04:51:04;;;;;;;;;;;6.60;85.60;;;;;;5055467;28;19919;-85
2021/04/03 04:53:30;;;;;;;;;;;6.60;86.00;;;;;;5073852;28;19908;-85
2021/04/03 04:55:55;;;;;;;;;;;6.70;86.10;;;;;;5055961;28;19904;-86
2021/04/03 04:58:21;;;;;;;;;;;6.70;86.30;;;;;;5055851;28;19909;-86
2021/04/03 05:00:46;;;;;;;;;;;6.60;85.80;;;;;;5055333;28;19904;-85
2021/04/03 05:03:12;;;;;;;;;;;6.60;86.00;;;;;;5055707;28;20360;-85
2021/04/03 05:05:37;;;;;;;;;;;6.50;86.40;;;;;;5073730;28;19910;-86
2021/04/03 05:08:03;;;;;;;;;;;6.50;86.50;;;;;;5055726;28;19912;-85
2021/04/03 05:10:28;;;;;;;;;;;6.70;86.40;;;;;;5055237;28;19908;-85
2021/04/03 05:12:58;;;;;;;;;;;6.70;86.20;;;;;;5055470;28;20280;-85
2021/04/03 05:15:24;;;;;;;;;;;6.70;86.50;;;;;;5056153;28;19904;-85
2021/04/03 05:17:50;;;;;;;;;;;6.70;86.10;;;;;;5055545;28;20057;-85
2021/04/03 05:20:15;;;;;;;;;;;6.40;86.60;;;;;;5072634;28;19908;-85
2021/04/03 05:22:41;;;;;;;;;;;6.50;86.90;;;;;;5056327;28;20375;-85
2021/04/03 05:25:06;;;;;;;;;;;6.50;87.10;;;;;;5073274;28;19905;-86
2021/04/03 05:27:32;;;;;;;;;;;6.60;86.50;;;;;;5055267;28;19909;-85
2021/04/03 05:29:57;;;;;;;;;;;6.60;86.20;;;;;;5054800;28;19943;-86
2021/04/03 05:32:23;;;;;;;;;;;6.70;86.30;;;;;;5055112;28;20007;-85
2021/04/03 05:34:48;;;;;;;;;;;6.60;86.60;;;;;;5073000;28;19923;-86
2021/04/03 05:37:14;;;;;;;;;;;6.70;86.30;;;;;;5055399;28;19904;-85
2021/04/03 05:39:39;;;;;;;;;;;6.60;86.50;;;;;;5072599;28;19904;-86
2021/04/03 05:42:05;;;;;;;;;;;6.60;86.70;;;;;;5055205;28;19904;-85
2021/04/03 05:44:31;;;;;;;;;;;6.50;86.50;;;;;;5055005;28;19915;-86
2021/04/03 05:46:58;;;;;;;;;;;6.50;87.00;;;;;;5072967;28;19905;-85
2021/04/03 05:49:23;;;;;;;;;;;6.60;87.10;;;;;;5054470;28;20265;-85
2021/04/03 05:51:49;;;;;;;;;;;6.60;86.90;;;;;;5072837;28;19911;-85
2021/04/03 05:54:14;;;;;;;;;;;6.70;86.60;;;;;;5054819;28;19905;-86
2021/04/03 05:56:41;;;;;;;;;;;6.70;86.80;;;;;;5072812;28;19911;-85
2021/04/03 05:59:06;;;;;;;;;;;6.60;86.90;;;;;;5054289;28;19904;-86
2021/04/03 06:02:03;;;;;;;;;;;6.60;87.20;;;;;;5054705;28;19910;-86
2021/04/03 06:10:59;;;;;;;;;;;6.50;87.90;;;;;;5010625;28;19952;-86
2021/04/03 06:14:00;;;;;;;;;;;6.50;87.70;;;;;;4971810;28;19910;-86
2021/04/03 06:19:56;;;;;;;;;;;6.60;88.30;;;;;;5010157;28;20051;-86
2021/04/03 06:22:21;;;;;;;;;;;6.70;87.60;;;;;;5022209;28;19911;-85
2021/04/03 06:24:47;;;;;;;;;;;6.70;88.10;;;;;;5055049;28;19944;-86
2021/04/03 06:27:17;;;;;;;;;;;6.70;88.00;;;;;;5055242;28;19965;-86
2021/04/03 06:29:45;;;;;;;;;;;6.70;87.90;;;;;;5054696;28;19904;-86
2021/04/03 06:32:21;;;;;;;;;;;6.80;87.60;;;;;;5054418;28;19973;-85
2021/04/03 06:38:23;;;;;;;;;;;6.70;87.40;;;;;;5074762;28;19962;-86
2021/04/03 06:50:25;;;;;;;;;;;6.50;88.00;;;;;;5029666;28;19916;-85
2021/04/03 06:56:14;;;;;;;;;;;6.70;87.10;;;;;;5010934;28;20039;-86
2021/04/03 06:58:42;;;;;;;;;;;6.60;87.00;;;;;;5013556;28;19947;-85
2021/04/03 07:01:08;;;;;;;;;;;6.70;86.50;;;;;;5034821;28;19904;-86
2021/04/03 07:03:34;;;;;;;;;;;6.80;86.20;;;;;;5054376;28;19911;-85
2021/04/03 07:05:59;;;;;;;;;;;6.90;85.90;;;;;;5072273;28;19955;-86
2021/04/03 07:08:26;;;;;;;;;;;6.80;85.50;;;;;;5054639;28;19910;-85
2021/04/03 07:10:52;;;;;;;;;;;6.90;85.30;;;;;;5053796;28;19931;-86
2021/04/03 07:13:18;;;;;;;;;;;7.00;84.70;;;;;;5054224;28;19912;-86
2021/04/03 07:15:44;;;;;;;;;;;6.90;84.70;;;;;;5054147;28;19912;-85
2021/04/03 07:18:10;;;;;;;;;;;6.80;85.20;;;;;;5054024;28;19904;-85
2021/04/03 07:20:36;;;;;;;;;;;6.90;84.30;;;;;;5053851;28;19953;-86
2021/04/03 07:23:03;;;;;;;;;;;6.90;84.50;;;;;;5057327;28;19904;-85
2021/04/03 07:25:30;;;;;;;;;;;7.00;83.30;;;;;;5074792;28;19904;-85
2021/04/03 07:27:55;;;;;;;;;;;7.00;82.50;;;;;;5073371;28;19934;-86
2021/04/03 07:30:38;;;;;;;;;;;7.00;82.80;;;;;;5072039;28;19999;-86
2021/04/03 07:33:06;;;;;;;;;;;7.10;82.20;;;;;;5054142;28;19908;-86
2021/04/03 07:35:35;;;;;;;;;;;7.00;81.10;;;;;;5054591;28;19911;-85
2021/04/03 07:38:06;;;;;;;;;;;7.00;81.70;;;;;;5053936;28;19947;-86
2021/04/03 07:40:36;;;;;;;;;;;7.20;81.60;;;;;;5072052;28;19912;-86
2021/04/03 07:43:02;;;;;;;;;;;7.20;81.10;;;;;;5057206;28;19905;-86
2021/04/03 07:45:30;;;;;;;;;;;7.30;80.50;;;;;;5058005;28;19905;-86
2021/04/03 07:47:56;;;;;;;;;;;7.20;80.00;;;;;;5058729;28;19994;-86
2021/04/03 07:50:51;;;;;;;;;;;7.20;79.90;;;;;;5057594;28;19950;-86
2021/04/03 07:53:33;;;;;;;;;;;7.20;80.40;;;;;;5040322;28;19966;-86
2021/04/03 07:55:59;;;;;;;;;;;7.30;80.40;;;;;;5075028;28;19935;-86
2021/04/03 07:58:26;;;;;;;;;;;7.20;80.30;;;;;;5057171;28;19991;-85
2021/04/03 08:00:52;;;;;;;;;;;7.20;80.40;;;;;;5074522;28;19905;-86
2021/04/03 08:03:24;;;;;;;;;;;7.20;80.20;;;;;;5057209;28;19904;-86
2021/04/03 08:05:56;;;;;;;;;;;7.30;80.00;;;;;;5057283;28;19904;-86
2021/04/03 08:08:22;;;;;;;;;;;7.40;79.80;;;;;;5057475;28;19954;-86
2021/04/03 08:10:48;;;;;;;;;;;7.50;79.60;;;;;;5057079;28;19915;-86
2021/04/03 08:13:17;;;;;;;;;;;7.40;79.60;;;;;;5057219;28;19908;-86
2021/04/03 08:15:42;;;;;;;;;;;7.30;80.30;;;;;;5075458;28;19950;-86
2021/04/03 08:18:09;;;;;;;;;;;7.40;81.00;;;;;;5075374;28;20273;-86
2021/04/03 08:20:35;;;;;;;;;;;7.40;80.20;;;;;;5074738;28;19908;-85
2021/04/03 08:23:01;;;;;;;;;;;7.40;80.00;;;;;;5057256;28;19930;-86
2021/04/03 08:25:27;;;;;;;;;;;7.50;79.80;;;;;;5056933;28;20397;-85
2021/04/03 08:27:52;;;;;;;;;;;7.40;80.50;;;;;;5056987;28;19911;-86
2021/04/03 08:30:26;;;;;;;;;;;7.30;81.10;;;;;;5072979;28;20006;-87
2021/04/03 08:33:01;;;;;;;;;;;7.40;80.80;;;;;;5074421;28;19909;-86
2021/04/03 08:35:28;;;;;;;;;;;7.40;81.00;;;;;;5057048;28;19908;-87
2021/04/03 08:38:07;;;;;;;;;;;7.40;81.10;;;;;;5057226;28;19954;-85
2021/04/03 08:40:32;;;;;;;;;;;7.40;81.50;;;;;;5074160;28;19908;-86
2021/04/03 08:42:58;;;;;;;;;;;7.40;81.30;;;;;;5056795;28;19904;-86
2021/04/03 08:45:23;;;;;;;;;;;7.40;81.20;;;;;;5074581;28;19944;-85
2021/04/03 08:47:52;;;;;;;;;;;7.40;81.60;;;;;;5056837;28;19904;-86
2021/04/03 08:50:18;;;;;;;;;;;7.50;81.90;;;;;;5055993;28;19905;-86
2021/04/03 08:52:44;;;;;;;;;;;7.40;81.50;;;;;;5056535;28;19920;-87
2021/04/03 08:55:09;;;;;;;;;;;7.50;81.40;;;;;;5073355;28;19995;-86
2021/04/03 08:57:35;;;;;;;;;;;7.60;81.10;;;;;;5056274;28;20006;-86
2021/04/03 09:00:02;;;;;;;;;;;7.50;81.50;;;;;;5055841;28;19944;-86
2021/04/03 09:02:28;;;;;;;;;;;7.60;82.00;;;;;;5074040;28;19924;-85
2021/04/03 09:04:55;;;;;;;;;;;7.60;82.40;;;;;;5056162;28;19905;-85
2021/04/03 09:07:33;;;;;;;;;;;7.60;82.40;;;;;;5073958;28;19915;-87
2021/04/03 09:10:19;;;;;;;;;;;7.80;82.10;;;;;;5055496;28;19911;-87
2021/04/03 09:12:45;;;;;;;;;;;7.80;81.90;;;;;;5055881;28;19998;-86
2021/04/03 09:15:11;;;;;;;;;;;7.70;82.90;;;;;;5055904;28;19908;-86
2021/04/03 09:17:51;;;;;;;;;;;7.80;82.80;;;;;;5073775;28;19904;-87
2021/04/03 09:20:20;;;;;;;;;;;7.80;82.60;;;;;;5055210;28;20007;-86
2021/04/03 09:22:46;;;;;;;;;;;7.60;83.10;;;;;;5056028;28;20275;-86
2021/04/03 09:25:13;;;;;;;;;;;7.70;83.10;;;;;;5073435;28;19905;-86
2021/04/03 09:27:39;;;;;;;;;;;7.80;83.30;;;;;;5055609;28;19911;-86
2021/04/03 09:30:06;;;;;;;;;;;7.80;83.10;;;;;;5055204;28;19904;-86
2021/04/03 09:32:50;;;;;;;;;;;7.80;83.30;;;;;;5056045;28;20336;-86
2021/04/03 09:35:23;;;;;;;;;;;7.90;83.20;;;;;;5073379;28;20330;-86
2021/04/03 09:38:01;;;;;;;;;;;7.80;82.90;;;;;;5073671;28;19904;-85
2021/04/03 09:40:42;;;;;;;;;;;7.80;83.40;;;;;;5054962;28;20323;-86
2021/04/03 09:43:08;;;;;;;;;;;7.80;83.30;;;;;;5055606;28;20276;-86
2021/04/03 09:45:34;;;;;;;;;;;7.90;83.30;;;;;;5055232;28;19910;-86
2021/04/03 09:48:00;;;;;;;;;;;8.00;83.20;;;;;;5055275;28;19904;-86
2021/04/03 09:50:25;;;;;;;;;;;7.90;83.40;;;;;;5072488;28;20039;-85
2021/04/03 09:52:51;;;;;;;;;;;7.90;83.90;;;;;;5072970;28;19912;-86
2021/04/03 09:55:17;;;;;;;;;;;7.90;84.40;;;;;;5054772;28;19977;-86
2021/04/03 09:57:42;;;;;;;;;;;7.90;84.10;;;;;;5055170;28;19915;-87
2021/04/03 10:00:09;;;;;;;;;;;7.80;84.20;;;;;;5072486;28;19954;-86
2021/04/03 10:02:35;;;;;;;;;;;7.80;84.50;;;;;;5055064;28;20300;-86
2021/04/03 10:05:00;;;;;;;;;;;8.00;84.20;;;;;;5054426;28;19908;-86
2021/04/03 10:07:26;;;;;;;;;;;8.00;84.00;;;;;;5054536;28;20413;-85
2021/04/03 10:09:53;;;;;;;;;;;8.10;83.20;;;;;;5054457;28;19909;-86
2021/04/03 10:12:21;;;;;;;;;;;8.00;83.30;;;;;;5072860;28;19924;-85
2021/04/03 10:14:47;;;;;;;;;;;8.10;83.20;;;;;;5072782;28;20262;-86
2021/04/03 10:17:12;;;;;;;;;;;8.10;82.80;;;;;;5054809;28;20003;-86
2021/04/03 10:19:38;;;;;;;;;;;8.20;82.50;;;;;;5054275;28;19911;-86
2021/04/03 10:22:04;;;;;;;;;;;8.20;82.70;;;;;;5072588;28;19998;-86
2021/04/03 10:24:29;;;;;;;;;;;8.20;82.40;;;;;;5054717;28;20003;-86
2021/04/03 10:26:55;;;;;;;;;;;8.30;82.50;;;;;;5054759;28;19911;-87
2021/04/03 10:29:20;;;;;;;;;;;8.40;82.20;;;;;;5054092;28;19990;-86
2021/04/03 10:31:46;;;;;;;;;;;8.60;82.10;;;;;;5072995;28;19995;-86
2021/04/03 10:34:11;;;;;;;;;;;8.60;81.90;;;;;;5055067;28;19912;-86
2021/04/03 10:36:37;;;;;;;;;;;8.60;81.10;;;;;;5054720;28;19912;-87
2021/04/03 10:39:03;;;;;;;;;;;8.60;80.80;;;;;;5054044;28;19935;-86
2021/04/03 10:41:28;;;;;;;;;;;8.60;80.50;;;;;;5054382;28;19904;-86
2021/04/03 10:43:54;;;;;;;;;;;8.60;80.70;;;;;;5072583;28;20381;-86
2021/04/03 10:46:19;;;;;;;;;;;8.70;81.30;;;;;;5054391;28;19905;-86
2021/04/03 10:48:45;;;;;;;;;;;8.70;81.30;;;;;;5054274;28;19912;-85
2021/04/03 10:51:10;;;;;;;;;;;8.60;80.40;;;;;;5053977;28;20311;-87
2021/04/03 10:53:36;;;;;;;;;;;8.60;80.60;;;;;;5054373;28;20435;-86
2021/04/03 10:56:01;;;;;;;;;;;8.70;80.30;;;;;;5072154;28;20304;-86
2021/04/03 10:58:27;;;;;;;;;;;8.70;79.90;;;;;;5054371;28;19916;-86
2021/04/03 11:00:52;;;;;;;;;;;8.70;80.10;;;;;;5071814;28;19904;-86
2021/04/03 11:03:18;;;;;;;;;;;8.80;80.30;;;;;;5070990;28;19951;-86
2021/04/03 11:05:43;;;;;;;;;;;8.60;80.50;;;;;;5072126;28;19905;-86
2021/04/03 11:08:09;;;;;;;;;;;8.80;80.70;;;;;;5054325;28;19904;-86
2021/04/03 11:10:37;;;;;;;;;;;8.80;80.00;;;;;;5054037;28;20258;-86
2021/04/03 11:13:04;;;;;;;;;;;8.90;80.40;;;;;;5054728;28;19944;-86
2021/04/03 11:15:29;;;;;;;;;;;9.00;79.10;;;;;;5054773;28;20422;-85
2021/04/03 11:17:55;;;;;;;;;;;8.90;78.50;;;;;;5059013;28;19951;-87
2021/04/03 11:20:20;;;;;;;;;;;8.90;78.40;;;;;;5077808;28;19946;-86
2021/04/03 11:22:46;;;;;;;;;;;8.90;78.60;;;;;;5061810;28;19905;-86
2021/04/03 11:25:12;;;;;;;;;;;9.00;78.70;;;;;;5077684;28;19958;-87
2021/04/03 11:27:37;;;;;;;;;;;9.00;78.70;;;;;;5058287;28;19911;-86
2021/04/03 11:30:13;;;;;;;;;;;9.10;78.30;;;;;;5057408;28;20007;-86
2021/04/03 11:32:43;;;;;;;;;;;9.10;78.10;;;;;;5057700;28;19915;-86
2021/04/03 11:35:09;;;;;;;;;;;9.20;77.80;;;;;;5057879;28;19954;-86
2021/04/03 11:37:35;;;;;;;;;;;9.20;77.40;;;;;;5075669;28;19911;-86
2021/04/03 11:40:02;;;;;;;;;;;9.20;76.80;;;;;;5057157;28;19908;-86
2021/04/03 11:42:28;;;;;;;;;;;9.20;76.90;;;;;;5057507;28;19904;-87
2021/04/03 11:44:53;;;;;;;;;;;9.30;76.80;;;;;;5075497;28;19904;-86
2021/04/03 11:47:19;;;;;;;;;;;9.40;76.40;;;;;;5075479;28;19949;-86
2021/04/03 11:49:45;;;;;;;;;;;9.60;75.60;;;;;;5057012;28;19995;-86
2021/04/03 11:52:10;;;;;;;;;;;9.60;75.70;;;;;;5057668;28;19916;-87
2021/04/03 11:54:36;;;;;;;;;;;9.70;75.00;;;;;;5057336;28;19905;-86
2021/04/03 11:57:02;;;;;;;;;;;9.80;74.80;;;;;;5075070;28;19912;-87
2021/04/03 11:59:28;;;;;;;;;;;9.90;75.10;;;;;;5056771;28;19919;-85
2021/04/03 12:01:53;;;;;;;;;;;9.90;74.40;;;;;;5057067;28;19905;-86
2021/04/03 12:04:19;;;;;;;;;;;9.80;74.40;;;;;;5057416;28;19908;-86
2021/04/03 12:06:44;;;;;;;;;;;9.80;73.80;;;;;;5057253;28;20353;-85
2021/04/03 12:09:10;;;;;;;;;;;9.70;71.80;;;;;;5056434;28;20040;-86
2021/04/03 12:11:35;;;;;;;;;;;9.70;71.90;;;;;;5056854;28;19911;-86
2021/04/03 12:14:01;;;;;;;;;;;9.80;71.60;;;;;;5056920;28;19908;-86
2021/04/03 12:16:27;;;;;;;;;;;9.90;72.40;;;;;;5056879;28;19905;-86
2021/04/03 12:18:52;;;;;;;;;;;9.90;72.70;;;;;;5056677;28;20277;-86
2021/04/03 12:21:18;;;;;;;;;;;9.90;71.60;;;;;;5056633;28;19912;-86
2021/04/03 12:23:43;;;;;;;;;;;9.80;71.00;;;;;;5074769;28;19905;-86
2021/04/03 12:26:09;;;;;;;;;;;9.90;70.80;;;;;;5056908;28;20317;-86
2021/04/03 12:28:34;;;;;;;;;;;9.80;69.60;;;;;;5073752;28;19924;-86
2021/04/03 12:31:00;;;;;;;;;;;9.90;69.80;;;;;;5056266;28;20345;-86
2021/04/03 12:33:25;;;;;;;;;;;9.90;69.20;;;;;;5074408;28;19935;-87
2021/04/03 12:35:51;;;;;;;;;;;10.00;69.20;;;;;;5074559;28;19908;-86
2021/04/03 12:38:16;;;;;;;;;;;10.10;73.00;;;;;;5056394;28;19904;-86
2021/04/03 12:40:42;;;;;;;;;;;10.00;72.40;;;;;;5056319;28;19954;-86
2021/04/03 12:43:07;;;;;;;;;;;10.00;72.70;;;;;;5056446;28;19908;-87
2021/04/03 12:45:33;;;;;;;;;;;10.10;73.30;;;;;;5056238;28;19904;-86
2021/04/03 12:47:58;;;;;;;;;;;10.10;72.60;;;;;;5056469;28;19911;-86
2021/04/03 12:50:24;;;;;;;;;;;10.10;71.20;;;;;;5055679;28;19912;-86
2021/04/03 12:52:49;;;;;;;;;;;10.20;68.70;;;;;;5055971;28;19909;-86
2021/04/03 12:55:15;;;;;;;;;;;10.20;69.00;;;;;;5074135;28;19916;-86
2021/04/03 12:57:40;;;;;;;;;;;10.20;69.40;;;;;;5074172;28;19908;-86
2021/04/03 13:00:06;;;;;;;;;;;10.40;70.00;;;;;;5055551;28;19912;-86
2021/04/03 13:02:32;;;;;;;;;;;10.30;72.00;;;;;;5073832;28;19904;-86
2021/04/03 13:04:58;;;;;;;;;;;10.30;72.20;;;;;;5073763;28;19905;-86
2021/04/03 13:07:23;;;;;;;;;;;10.30;70.30;;;;;;5073901;28;20253;-86
2021/04/03 13:09:49;;;;;;;;;;;10.20;69.00;;;;;;5055583;28;19904;-87
2021/04/03 13:12:14;;;;;;;;;;;10.10;68.20;;;;;;5072546;28;19905;-86
2021/04/03 13:14:41;;;;;;;;;;;10.10;67.80;;;;;;5073683;28;20428;-87
2021/04/03 13:17:06;;;;;;;;;;;10.10;67.40;;;;;;5055805;28;20353;-86
2021/04/03 13:19:32;;;;;;;;;;;10.30;70.40;;;;;;5055232;28;19904;-86
2021/04/03 13:21:57;;;;;;;;;;;10.40;70.00;;;;;;5073475;28;19905;-87
2021/04/03 13:24:23;;;;;;;;;;;10.20;70.40;;;;;;5073506;28;19905;-86
2021/04/03 13:26:48;;;;;;;;;;;10.30;71.10;;;;;;5055431;28;19954;-86
2021/04/03 13:29:14;;;;;;;;;;;10.30;69.80;;;;;;5054803;28;20010;-86
2021/04/03 13:31:39;;;;;;;;;;;10.30;69.60;;;;;;5071808;28;19905;-86
2021/04/03 13:34:05;;;;;;;;;;;10.40;69.00;;;;;;5055451;28;20018;-86
2021/04/03 13:36:30;;;;;;;;;;;10.40;68.30;;;;;;5073857;28;19909;-87
2021/04/03 13:38:56;;;;;;;;;;;10.40;67.00;;;;;;5055930;28;19912;-86
2021/04/03 13:41:21;;;;;;;;;;;10.50;67.20;;;;;;5056108;28;19953;-85
2021/04/03 13:43:47;;;;;;;;;;;10.60;65.60;;;;;;5056033;28;20057;-86
2021/04/03 13:46:13;;;;;;;;;;;10.50;65.00;;;;;;5073865;28;19904;-89
2021/04/03 13:48:38;;;;;;;;;;;10.50;65.40;;;;;;5055913;28;19905;-85
2021/04/03 13:51:04;;;;;;;;;;;10.50;65.30;;;;;;5055907;28;19912;-86
2021/04/03 13:53:30;;;;;;;;;;;10.50;65.80;;;;;;5056208;28;19909;-86
2021/04/03 13:55:55;;;;;;;;;;;10.60;66.30;;;;;;5055925;28;19958;-87
2021/04/03 13:58:21;;;;;;;;;;;10.60;65.80;;;;;;5056061;28;19915;-88
2021/04/03 14:00:48;;;;;;;;;;;10.70;65.40;;;;;;5056272;28;19911;-87
2021/04/03 14:03:13;;;;;;;;;;;10.70;62.60;;;;;;5056027;28;19965;-86
2021/04/03 14:05:39;;;;;;;;;;;10.70;62.50;;;;;;5055811;28;19908;-86
2021/04/03 14:08:05;;;;;;;;;;;10.70;61.40;;;;;;5055922;28;20571;-86
2021/04/03 14:10:31;;;;;;;;;;;10.70;62.10;;;;;;5055834;28;19962;-86
2021/04/03 14:12:56;;;;;;;;;;;10.70;61.90;;;;;;5055814;28;19916;-86
2021/04/03 14:15:22;;;;;;;;;;;10.80;62.50;;;;;;5055661;28;20276;-87
2021/04/03 14:17:47;;;;;;;;;;;10.90;62.60;;;;;;5055995;28;19905;-86
2021/04/03 14:20:13;;;;;;;;;;;10.90;61.90;;;;;;5056716;28;20474;-86
2021/04/03 14:22:39;;;;;;;;;;;11.00;61.80;;;;;;5055600;28;19908;-86
2021/04/03 14:25:04;;;;;;;;;;;10.80;61.00;;;;;;5055700;28;19905;-86
2021/04/03 14:27:30;;;;;;;;;;;10.80;61.00;;;;;;5056176;28;19905;-86
2021/04/03 14:29:56;;;;;;;;;;;10.80;61.50;;;;;;5074332;28;20253;-87
2021/04/03 14:32:21;;;;;;;;;;;10.80;61.00;;;;;;5055856;28;19935;-86
2021/04/03 14:34:46;;;;;;;;;;;10.80;59.00;;;;;;5073779;28;19904;-86
2021/04/03 14:37:12;;;;;;;;;;;10.90;58.40;;;;;;5055580;28;19930;-86
2021/04/03 14:39:38;;;;;;;;;;;11.00;57.90;;;;;;5055327;28;19904;-86
2021/04/03 14:42:03;;;;;;;;;;;11.20;57.40;;;;;;5055464;28;19905;-86
2021/04/03 14:44:29;;;;;;;;;;;11.30;56.60;;;;;;5074131;28;19904;-86
2021/04/03 14:46:54;;;;;;;;;;;11.30;59.10;;;;;;5055608;28;19904;-86
2021/04/03 14:49:20;;;;;;;;;;;11.20;59.40;;;;;;5056169;28;19904;-86
2021/04/03 14:51:45;;;;;;;;;;;11.30;59.70;;;;;;5057014;28;19927;-86
2021/04/03 14:54:11;;;;;;;;;;;11.30;60.00;;;;;;5059748;28;19912;-86